createdAt,value
2023-03-26T00:04:26.797Z,9.64
2023-03-26T00:14:35.565Z,12.35
2023-03-26T00:24:44.285Z,9.93
2023-03-26T00:34:52.861Z,12.08
2023-03-26T00:45:01.484Z,11.02
2023-03-26T00:55:10.135Z,8.24
2023-03-26T01:05:18.660Z,8.87
2023-03-26T01:15:27.367Z,11.45
2023-03-26T01:25:36.068Z,12.33
2023-03-26T01:35:44.564Z,12.47
2023-03-26T01:45:53.324Z,11.96
2023-03-26T01:56:01.132Z,12.04
2023-03-26T02:06:09.693Z,11.69
2023-03-26T02:16:18.420Z,11.46
2023-03-26T02:26:26.893Z,14.13
2023-03-26T02:36:35.369Z,12.99
2023-03-26T02:46:43.888Z,16.38
2023-03-26T02:56:52.420Z,14.86
2023-03-26T03:07:00.919Z,10.79
2023-03-26T03:17:09.521Z,12.68
2023-03-26T03:27:18.109Z,12.7
2023-03-26T03:37:26.656Z,13.26
2023-03-26T03:47:35.217Z,13.16
2023-03-26T03:57:43.768Z,11.9
2023-03-26T04:07:52.281Z,11.67
2023-03-26T04:18:01.010Z,11.8
2023-03-26T04:28:09.589Z,10.51
2023-03-26T04:38:18.125Z,12.33
2023-03-26T04:48:26.719Z,11.77
2023-03-26T04:58:35.268Z,11.67
2023-03-26T05:08:43.906Z,12.94
2023-03-26T05:18:52.553Z,11.31
2023-03-26T05:29:01.030Z,13.9
2023-03-26T05:39:09.649Z,13
2023-03-26T05:49:18.324Z,14.48
2023-03-26T05:59:26.881Z,13.8
2023-03-26T06:09:35.777Z,17.29
2023-03-26T06:19:45.553Z,15.54
2023-03-26T06:29:54.382Z,12.45
2023-03-26T06:40:03.020Z,13.88
2023-03-26T06:50:11.598Z,13.32
2023-03-26T07:00:20.469Z,16.83
2023-03-26T07:10:29.236Z,12.03
2023-03-26T07:20:37.918Z,12.39
2023-03-26T07:30:46.577Z,12.11
2023-03-26T07:40:55.823Z,9.64
2023-03-26T07:51:04.004Z,9.02
2023-03-26T08:01:12.555Z,8.6
2023-03-26T08:11:21.267Z,8.53
2023-03-26T08:21:30.000Z,6.91
2023-03-26T08:31:38.784Z,5.53
2023-03-26T08:41:47.428Z,7.64
2023-03-26T08:51:55.964Z,6.34
2023-03-26T09:02:04.686Z,5.22
2023-03-26T09:12:13.462Z,6.19
2023-03-26T09:22:25.348Z,5.1
2023-03-26T09:32:41.110Z,7.01
2023-03-26T09:42:32.087Z,7.44
2023-03-26T09:52:41.068Z,4.98
2023-03-26T10:02:49.950Z,5.44
2023-03-26T10:13:05.025Z,5.17
2023-03-26T10:23:06.337Z,5.86
2023-03-26T10:33:16.498Z,5.5
2023-03-26T10:43:14.117Z,4.53
2023-03-26T10:53:22.877Z,4.01
2023-03-26T11:03:31.884Z,5.26
2023-03-26T11:13:40.538Z,11.7
2023-03-26T11:23:49.376Z,5.16
2023-03-26T11:33:56.747Z,7.43
2023-03-26T11:44:05.440Z,12.99
2023-03-26T11:54:14.178Z,13.72
2023-03-26T12:04:22.892Z,7.32
2023-03-26T12:14:31.075Z,5.5
2023-03-26T12:24:39.778Z,13.65
2023-03-26T12:34:48.414Z,9.61
2023-03-26T12:44:58.692Z,8.86
2023-03-26T12:55:03.955Z,6.98
2023-03-26T13:05:11.319Z,7.84
2023-03-26T13:15:21.024Z,6.98
2023-03-26T13:25:29.706Z,5.35
2023-03-26T13:35:39.753Z,5.02
2023-03-26T13:45:51.377Z,4.88
2023-03-26T13:55:51.430Z,4.03
2023-03-26T14:06:00.176Z,9.04
2023-03-26T14:16:09.874Z,9.44
2023-03-26T14:26:18.550Z,6.98
2023-03-26T14:36:27.275Z,9.14
2023-03-26T14:46:36.076Z,8.97
2023-03-26T14:56:44.859Z,8.82
2023-03-26T15:06:53.678Z,10.2
2023-03-26T15:17:07.913Z,10.26
2023-03-26T15:27:06.705Z,13.98
2023-03-26T15:37:15.496Z,7.29
2023-03-26T15:47:24.231Z,11.2
2023-03-26T15:57:33.014Z,23.3
2023-03-26T16:07:41.686Z,6.06
2023-03-26T16:17:52.187Z,8.43
2023-03-26T16:27:58.921Z,8.22
2023-03-26T16:38:07.516Z,11.86
2023-03-26T16:48:10.740Z,18.52
2023-03-26T16:58:22.090Z,8.51
2023-03-26T17:08:35.336Z,4.56
2023-03-26T17:18:34.788Z,5.54
2023-03-26T17:28:37.388Z,13.26
2023-03-26T17:38:54.899Z,6.49
2023-03-26T17:48:42.320Z,7.95
2023-03-26T17:58:43.628Z,4.47
2023-03-26T18:08:45.402Z,4.83
2023-03-26T18:18:50.548Z,4.05
2023-03-26T18:28:53.574Z,3.94
2023-03-26T18:38:55.461Z,4.6
2023-03-26T18:49:09.990Z,4.69
2023-03-26T18:59:00.476Z,3.84
2023-03-26T19:08:59.691Z,6.5
2023-03-26T19:19:09.883Z,5.01
2023-03-26T19:29:18.712Z,5.07
2023-03-26T19:39:36.709Z,4.65
2023-03-26T19:49:23.633Z,5.76
2023-03-26T19:59:33.142Z,3.81
2023-03-26T20:09:31.850Z,5.28
2023-03-26T20:19:41.808Z,5
2023-03-26T20:29:44.265Z,5.41
2023-03-26T20:39:49.154Z,5.95
2023-03-26T20:49:53.172Z,3.76
2023-03-26T20:59:50.610Z,4.26
2023-03-26T21:09:59.851Z,6.54
2023-03-26T21:20:08.557Z,4.71
2023-03-26T21:30:17.244Z,2.61
2023-03-26T21:40:26.011Z,4.26
2023-03-26T21:50:35.044Z,4.84
2023-03-26T22:00:43.515Z,2.82
2023-03-26T22:10:52.393Z,5.19
2023-03-26T22:20:52.274Z,4.69
2023-03-26T22:31:03.023Z,5.33
2023-03-26T22:41:01.642Z,5.97
2023-03-26T22:51:14.091Z,4.12
2023-03-26T23:01:12.393Z,4.65
2023-03-26T23:11:21.224Z,3.93
2023-03-26T23:21:30.951Z,6.21
2023-03-26T23:31:30.920Z,4.94
2023-03-26T23:41:39.688Z,4.21
2023-03-26T23:51:48.420Z,4.15
